Time;durP1;ratioP1;P1;durP2;ratioP2;P2;SDS_P1;SDS_P2;PMS_P1;PMS_P2;Temp;Humidity;BMP_temperature;BMP_pressure;BME280_temperature;BME280_humidity;BME280_pressure;Samples;Min_cycle;Max_cycle;Signal;HPM_P1;HPM_P2
2023/08/17 00:01:44;;;;;;;4.97;3.78;;;;;;;;;;5078695;28;20033;-63
2023/08/17 00:04:09;;;;;;;4.97;3.37;;;;;;;;;;5078309;28;20379;-64
2023/08/17 00:06:35;;;;;;;8.18;4.05;;;;;;;;;;5070500;28;20274;-63
2023/08/17 00:09:00;;;;;;;6.67;4.17;;;;;;;;;;5069837;28;20055;-63
2023/08/17 00:11:25;;;;;;;4.43;3.83;;;;;;;;;;5072907;28;20282;-63
2023/08/17 00:13:51;;;;;;;6.00;4.17;;;;;;;;;;5075290;28;20274;-62
2023/08/17 00:16:16;;;;;;;6.55;4.03;;;;;;;;;;5077246;28;20266;-62
2023/08/17 00:18:42;;;;;;;6.68;4.22;;;;;;;;;;5089178;28;20703;-63
2023/08/17 00:21:07;;;;;;;7.68;4.15;;;;;;;;;;5089897;28;20023;-62
2023/08/17 00:23:32;;;;;;;6.18;4.05;;;;;;;;;;5088785;28;20051;-63
2023/08/17 00:25:58;;;;;;;6.97;4.13;;;;;;;;;;5076088;28;20020;-62
2023/08/17 00:28:23;;;;;;;7.40;3.90;;;;;;;;;;5076147;28;20028;-63
2023/08/17 00:30:49;;;;;;;7.30;4.10;;;;;;;;;;5074519;28;20538;-64
2023/08/17 00:33:14;;;;;;;7.50;4.03;;;;;;;;;;5082028;28;20029;-63
2023/08/17 00:35:39;;;;;;;7.47;4.18;;;;;;;;;;5077580;28;20323;-64
2023/08/17 00:38:04;;;;;;;5.30;3.90;;;;;;;;;;5093408;28;20104;-64
2023/08/17 00:40:30;;;;;;;4.75;3.88;;;;;;;;;;5091601;28;20318;-63
2023/08/17 00:42:55;;;;;;;6.60;4.15;;;;;;;;;;5083467;28;20047;-64
2023/08/17 00:45:22;;;;;;;5.05;3.67;;;;;;;;;;5070967;28;20363;-64
2023/08/17 00:47:47;;;;;;;5.78;4.03;;;;;;;;;;5069077;28;20028;-64
2023/08/17 00:50:13;;;;;;;6.68;4.10;;;;;;;;;;5050605;28;20040;-64
2023/08/17 00:52:39;;;;;;;6.32;3.97;;;;;;;;;;5075579;28;20025;-64
2023/08/17 00:55:04;;;;;;;4.82;3.28;;;;;;;;;;5079358;28;20061;-64
2023/08/17 00:57:30;;;;;;;7.15;3.92;;;;;;;;;;5082844;28;20024;-63
2023/08/17 00:59:55;;;;;;;8.27;3.67;;;;;;;;;;5078821;28;20038;-64
2023/08/17 01:02:21;;;;;;;6.00;4.07;;;;;;;;;;5079505;28;20020;-63
2023/08/17 01:04:46;;;;;;;6.53;4.25;;;;;;;;;;5085188;28;20028;-64
2023/08/17 01:07:11;;;;;;;10.88;4.53;;;;;;;;;;5086252;28;20028;-63
2023/08/17 01:09:37;;;;;;;5.20;3.70;;;;;;;;;;5084875;28;20016;-63
2023/08/17 01:12:08;;;;;;;5.90;4.05;;;;;;;;;;5079977;28;20801;-63
2023/08/17 01:14:39;;;;;;;7.00;4.25;;;;;;;;;;5084159;28;20043;-64
2023/08/17 01:17:08;;;;;;;9.10;4.18;;;;;;;;;;5080601;28;20032;-63
2023/08/17 01:19:34;;;;;;;5.13;3.35;;;;;;;;;;5085738;28;20043;-64
2023/08/17 01:22:04;;;;;;;4.78;3.33;;;;;;;;;;5078713;28;20036;-63
2023/08/17 01:24:29;;;;;;;4.97;3.30;;;;;;;;;;5084371;28;20024;-63
2023/08/17 01:26:54;;;;;;;4.68;3.20;;;;;;;;;;5078342;28;20059;-64
2023/08/17 01:29:20;;;;;;;8.27;3.40;;;;;;;;;;5066739;28;20078;-63
2023/08/17 01:31:45;;;;;;;7.50;3.47;;;;;;;;;;5038922;28;20277;-63
2023/08/17 01:34:17;;;;;;;6.70;3.50;;;;;;;;;;5044449;28;20884;-64
2023/08/17 01:36:46;;;;;;;6.68;2.88;;;;;;;;;;5085607;28;20666;-63
2023/08/17 01:39:12;;;;;;;6.75;2.85;;;;;;;;;;5086944;28;20032;-63
2023/08/17 01:41:39;;;;;;;4.22;2.88;;;;;;;;;;5081640;28;20016;-63
2023/08/17 01:44:04;;;;;;;5.68;2.83;;;;;;;;;;5078982;28;20071;-63
2023/08/17 01:46:32;;;;;;;6.75;3.13;;;;;;;;;;5082429;28;20058;-63
2023/08/17 01:48:57;;;;;;;5.05;2.92;;;;;;;;;;5051702;28;20021;-64
2023/08/17 01:51:23;;;;;;;7.07;3.03;;;;;;;;;;5021367;28;20043;-64
2023/08/17 01:53:48;;;;;;;3.83;2.72;;;;;;;;;;5068764;28;20085;-64
2023/08/17 01:56:14;;;;;;;4.05;3.08;;;;;;;;;;5087187;28;20496;-63
2023/08/17 01:58:39;;;;;;;3.95;3.10;;;;;;;;;;5075548;28;20062;-63
2023/08/17 02:01:04;;;;;;;5.07;3.63;;;;;;;;;;5088570;28;20071;-64
2023/08/17 02:03:30;;;;;;;6.17;3.03;;;;;;;;;;5083066;28;20107;-64
2023/08/17 02:05:56;;;;;;;5.53;3.40;;;;;;;;;;5087097;28;20296;-64
2023/08/17 02:08:21;;;;;;;5.53;3.58;;;;;;;;;;5085593;28;20028;-63
2023/08/17 02:10:46;;;;;;;8.23;3.80;;;;;;;;;;5076815;28;20033;-63
2023/08/17 02:13:12;;;;;;;6.63;3.20;;;;;;;;;;5073448;28;20118;-64
2023/08/17 02:15:40;;;;;;;5.70;3.17;;;;;;;;;;5072828;28;20271;-63
2023/08/17 02:18:06;;;;;;;6.40;3.03;;;;;;;;;;5072394;28;20082;-63
2023/08/17 02:20:31;;;;;;;12.93;4.07;;;;;;;;;;5072775;28;20457;-63
2023/08/17 02:22:56;;;;;;;5.00;3.35;;;;;;;;;;5072554;28;20064;-63
2023/08/17 02:25:22;;;;;;;5.53;3.30;;;;;;;;;;5073420;28;20016;-63
2023/08/17 02:27:47;;;;;;;4.53;3.17;;;;;;;;;;5073716;28;20060;-63
2023/08/17 02:30:13;;;;;;;6.83;3.60;;;;;;;;;;5077401;28;20028;-63
2023/08/17 02:32:38;;;;;;;4.97;3.28;;;;;;;;;;5072928;28;20262;-63
2023/08/17 02:35:03;;;;;;;4.63;3.40;;;;;;;;;;5078746;28;20106;-63
2023/08/17 02:37:29;;;;;;;6.60;3.60;;;;;;;;;;5090898;28;20034;-63
2023/08/17 02:39:54;;;;;;;5.13;3.17;;;;;;;;;;5062810;28;20035;-64
2023/08/17 02:42:19;;;;;;;5.60;3.67;;;;;;;;;;5026060;28;20856;-64
2023/08/17 02:44:44;;;;;;;4.97;3.38;;;;;;;;;;5037601;28;20021;-64
2023/08/17 02:47:10;;;;;;;3.93;2.67;;;;;;;;;;5029630;28;20943;-64
2023/08/17 02:49:35;;;;;;;4.90;3.15;;;;;;;;;;5036303;28;20370;-63
2023/08/17 02:52:00;;;;;;;4.45;3.03;;;;;;;;;;5081435;28;20109;-63
2023/08/17 02:54:26;;;;;;;7.03;3.20;;;;;;;;;;5090712;28;20020;-64
2023/08/17 02:56:51;;;;;;;5.83;3.47;;;;;;;;;;5089832;28;20779;-64
2023/08/17 02:59:16;;;;;;;7.73;3.47;;;;;;;;;;5091023;28;20269;-64
2023/08/17 03:01:41;;;;;;;4.50;3.10;;;;;;;;;;5089935;28;20270;-63
2023/08/17 03:04:07;;;;;;;7.55;3.42;;;;;;;;;;5084657;28;20381;-64
2023/08/17 03:06:32;;;;;;;5.03;3.28;;;;;;;;;;5075038;28;20029;-63
2023/08/17 03:08:57;;;;;;;5.73;3.37;;;;;;;;;;5074248;28;20061;-63
2023/08/17 03:11:22;;;;;;;5.53;3.10;;;;;;;;;;5077758;28;20781;-63
2023/08/17 03:13:48;;;;;;;5.53;3.38;;;;;;;;;;5071230;28;20354;-64
2023/08/17 03:16:14;;;;;;;5.53;3.85;;;;;;;;;;5076244;28;20024;-63
2023/08/17 03:18:39;;;;;;;11.60;4.72;;;;;;;;;;5071211;28;20033;-64
2023/08/17 03:21:05;;;;;;;10.00;4.40;;;;;;;;;;5073824;28;20047;-63
2023/08/17 03:23:32;;;;;;;5.75;4.25;;;;;;;;;;5082736;28;20373;-64
2023/08/17 03:25:57;;;;;;;5.82;4.10;;;;;;;;;;5089766;28;20371;-63
2023/08/17 03:28:22;;;;;;;5.67;4.23;;;;;;;;;;5088869;28;20046;-63
2023/08/17 03:30:47;;;;;;;5.32;3.80;;;;;;;;;;5089302;28;20306;-64
2023/08/17 03:33:13;;;;;;;6.40;4.53;;;;;;;;;;5084517;28;20024;-63
2023/08/17 03:35:38;;;;;;;4.65;3.70;;;;;;;;;;5078144;28;20105;-64
2023/08/17 03:38:03;;;;;;;5.83;3.97;;;;;;;;;;5080612;28;20017;-63
2023/08/17 03:40:28;;;;;;;5.77;4.13;;;;;;;;;;5084344;28;20764;-64
2023/08/17 03:42:54;;;;;;;6.10;4.28;;;;;;;;;;5080205;28;20703;-64
2023/08/17 03:45:19;;;;;;;5.78;4.70;;;;;;;;;;5084014;28;20020;-64
2023/08/17 03:47:44;;;;;;;7.07;5.18;;;;;;;;;;5080562;28;20419;-63
2023/08/17 03:50:10;;;;;;;6.30;5.00;;;;;;;;;;5083738;28;20016;-64
2023/08/17 03:52:35;;;;;;;10.27;5.25;;;;;;;;;;5084235;28;20279;-64
2023/08/17 03:55:00;;;;;;;6.25;5.65;;;;;;;;;;5086258;28;20020;-64
2023/08/17 03:57:25;;;;;;;7.35;5.65;;;;;;;;;;5037992;28;20941;-64
2023/08/17 03:59:51;;;;;;;9.40;5.60;;;;;;;;;;5034745;28;20082;-63
2023/08/17 04:02:16;;;;;;;7.53;5.37;;;;;;;;;;5030994;28;20260;-64
2023/08/17 04:04:41;;;;;;;8.68;4.70;;;;;;;;;;5043839;28;20282;-64
2023/08/17 04:07:07;;;;;;;8.02;5.50;;;;;;;;;;5035166;28;20951;-64
2023/08/17 04:09:33;;;;;;;6.38;4.68;;;;;;;;;;5047272;28;20875;-63
2023/08/17 04:11:59;;;;;;;6.97;4.82;;;;;;;;;;5087485;28;20028;-63
2023/08/17 04:14:24;;;;;;;6.97;4.93;;;;;;;;;;5037407;28;20051;-65
2023/08/17 04:16:49;;;;;;;10.00;4.30;;;;;;;;;;5084084;28;20028;-64
2023/08/17 04:19:14;;;;;;;7.43;4.60;;;;;;;;;;5093384;28;20025;-65
2023/08/17 04:21:39;;;;;;;7.73;4.17;;;;;;;;;;5083948;28;20776;-64
2023/08/17 04:24:05;;;;;;;7.10;4.83;;;;;;;;;;5078424;28;20660;-65
2023/08/17 04:26:30;;;;;;;6.68;4.30;;;;;;;;;;5075875;28;20274;-65
2023/08/17 04:28:55;;;;;;;8.80;4.30;;;;;;;;;;5078579;28;20071;-65
2023/08/17 04:31:21;;;;;;;7.57;4.80;;;;;;;;;;5075180;28;20297;-65
2023/08/17 04:33:46;;;;;;;6.18;4.03;;;;;;;;;;5075211;28;20335;-64
2023/08/17 04:36:11;;;;;;;7.47;4.60;;;;;;;;;;5075856;28;20036;-64
2023/08/17 04:38:36;;;;;;;5.27;3.83;;;;;;;;;;5078214;28;20331;-64
2023/08/17 04:41:02;;;;;;;9.87;4.97;;;;;;;;;;5077017;28;20361;-64
2023/08/17 04:43:27;;;;;;;5.43;3.88;;;;;;;;;;5080385;28;20324;-63
2023/08/17 04:45:52;;;;;;;5.90;3.85;;;;;;;;;;5077436;28;20077;-64
2023/08/17 04:48:17;;;;;;;6.60;4.80;;;;;;;;;;5078879;28;20024;-64
2023/08/17 04:50:42;;;;;;;6.93;4.53;;;;;;;;;;5076893;28;20267;-64
2023/08/17 04:53:08;;;;;;;9.70;4.63;;;;;;;;;;5089190;28;20633;-64
2023/08/17 04:55:33;;;;;;;6.07;4.13;;;;;;;;;;5085197;28;20359;-64
2023/08/17 04:57:58;;;;;;;7.63;4.50;;;;;;;;;;5090692;28;20293;-64
2023/08/17 05:00:27;;;;;;;5.60;4.10;;;;;;;;;;5068628;28;20032;-64
2023/08/17 05:02:52;;;;;;;6.78;3.85;;;;;;;;;;5036802;28;20247;-64
2023/08/17 05:05:17;;;;;;;6.63;4.07;;;;;;;;;;5036169;28;20050;-63
2023/08/17 05:07:43;;;;;;;6.18;4.38;;;;;;;;;;5050136;28;21167;-64
2023/08/17 05:10:08;;;;;;;7.40;3.42;;;;;;;;;;5070259;28;20028;-64
2023/08/17 05:12:33;;;;;;;8.43;3.70;;;;;;;;;;5052341;28;21028;-63
2023/08/17 05:14:59;;;;;;;7.20;3.47;;;;;;;;;;5045288;28;20020;-63
2023/08/17 05:17:24;;;;;;;4.57;3.17;;;;;;;;;;5040616;28;20267;-64
2023/08/17 05:19:49;;;;;;;8.95;3.88;;;;;;;;;;5036833;28;21090;-64
2023/08/17 05:22:15;;;;;;;8.35;4.43;;;;;;;;;;5042059;28;20250;-64
2023/08/17 05:24:40;;;;;;;8.10;3.45;;;;;;;;;;5032833;28;20036;-64
2023/08/17 05:27:05;;;;;;;6.05;3.80;;;;;;;;;;5061981;28;20466;-64
2023/08/17 05:29:32;;;;;;;10.23;4.07;;;;;;;;;;5089818;28;20047;-63
2023/08/17 05:31:57;;;;;;;7.03;3.90;;;;;;;;;;5086751;28;20020;-64
2023/08/17 05:34:23;;;;;;;8.65;4.13;;;;;;;;;;5040177;28;20889;-64
2023/08/17 05:36:48;;;;;;;5.28;3.97;;;;;;;;;;5045537;28;20020;-63
2023/08/17 05:39:13;;;;;;;6.15;3.70;;;;;;;;;;5039695;28;20017;-62
2023/08/17 05:41:39;;;;;;;5.00;3.58;;;;;;;;;;5039515;28;20128;-63
2023/08/17 05:44:06;;;;;;;6.07;4.18;;;;;;;;;;5040871;28;20098;-63
2023/08/17 05:46:31;;;;;;;12.93;3.80;;;;;;;;;;5038561;28;20301;-63
2023/08/17 05:48:58;;;;;;;6.97;4.03;;;;;;;;;;5076955;28;20031;-63
2023/08/17 05:51:23;;;;;;;6.18;3.97;;;;;;;;;;5064039;28;20021;-64
2023/08/17 05:53:49;;;;;;;5.55;3.85;;;;;;;;;;5085041;28;20035;-63
2023/08/17 05:56:14;;;;;;;8.00;4.00;;;;;;;;;;5079475;28;20096;-63
2023/08/17 05:58:39;;;;;;;6.97;3.73;;;;;;;;;;5050500;28;20382;-63
2023/08/17 06:01:08;;;;;;;8.93;4.88;;;;;;;;;;5036662;28;21087;-63
2023/08/17 06:03:34;;;;;;;9.60;5.03;;;;;;;;;;5058061;28;20028;-63
2023/08/17 06:05:59;;;;;;;6.32;4.53;;;;;;;;;;5085265;28;20073;-63
2023/08/17 06:08:24;;;;;;;9.63;4.53;;;;;;;;;;5080952;28;20026;-64
2023/08/17 06:10:49;;;;;;;7.30;4.37;;;;;;;;;;5090840;28;20549;-64
2023/08/17 06:13:15;;;;;;;9.03;5.83;;;;;;;;;;5092445;28;20618;-63
2023/08/17 06:15:43;;;;;;;6.85;5.00;;;;;;;;;;5091821;28;20270;-62
2023/08/17 06:18:08;;;;;;;10.40;5.53;;;;;;;;;;5081518;28;20024;-63
2023/08/17 06:20:33;;;;;;;6.30;5.20;;;;;;;;;;5087781;28;20073;-63
2023/08/17 06:22:59;;;;;;;12.13;5.80;;;;;;;;;;5039545;28;20302;-63
2023/08/17 06:25:25;;;;;;;6.13;5.20;;;;;;;;;;5036693;28;20286;-63
2023/08/17 06:27:51;;;;;;;8.52;6.05;;;;;;;;;;5040366;28;20277;-63
2023/08/17 06:30:16;;;;;;;9.43;6.63;;;;;;;;;;5041471;28;20024;-63
2023/08/17 06:32:41;;;;;;;8.68;6.07;;;;;;;;;;5038786;28;20123;-63
2023/08/17 06:35:07;;;;;;;11.73;5.97;;;;;;;;;;5034635;28;20024;-63
2023/08/17 06:37:32;;;;;;;11.55;6.13;;;;;;;;;;5033233;28;20016;-63
2023/08/17 06:39:57;;;;;;;9.48;6.90;;;;;;;;;;5038512;28;20027;-63
2023/08/17 06:42:22;;;;;;;10.63;7.10;;;;;;;;;;5076301;28;20507;-63
2023/08/17 06:44:48;;;;;;;10.10;6.82;;;;;;;;;;5081021;28;20274;-63
2023/08/17 06:47:13;;;;;;;9.23;7.57;;;;;;;;;;5080713;28;20084;-62
2023/08/17 06:49:38;;;;;;;9.67;7.73;;;;;;;;;;5082753;28;20316;-62
2023/08/17 06:52:03;;;;;;;12.10;8.23;;;;;;;;;;5077244;28;20807;-62
2023/08/17 06:54:29;;;;;;;10.85;8.77;;;;;;;;;;5079457;28;20262;-62
2023/08/17 06:56:54;;;;;;;15.33;9.20;;;;;;;;;;5072421;28;20024;-63
2023/08/17 06:59:19;;;;;;;12.37;7.87;;;;;;;;;;5044374;28;20269;-64
2023/08/17 07:01:44;;;;;;;13.03;9.07;;;;;;;;;;5032328;28;21181;-64
2023/08/17 07:04:10;;;;;;;14.90;9.63;;;;;;;;;;5037211;28;20591;-64
2023/08/17 07:06:35;;;;;;;15.33;9.60;;;;;;;;;;5038878;28;20020;-64
2023/08/17 07:09:00;;;;;;;19.63;10.07;;;;;;;;;;5041767;28;21279;-64
2023/08/17 07:11:25;;;;;;;16.23;9.10;;;;;;;;;;5050399;28;21145;-64
2023/08/17 07:13:51;;;;;;;21.08;11.55;;;;;;;;;;5033903;28;20348;-64
2023/08/17 07:16:18;;;;;;;13.48;10.57;;;;;;;;;;5031177;28;20140;-64
2023/08/17 07:18:44;;;;;;;11.82;9.98;;;;;;;;;;5077215;28;20028;-64
2023/08/17 07:21:09;;;;;;;12.45;8.77;;;;;;;;;;5081430;28;20352;-64
2023/08/17 07:23:34;;;;;;;11.23;9.53;;;;;;;;;;5079345;28;20038;-64
2023/08/17 07:26:00;;;;;;;12.52;9.35;;;;;;;;;;5076030;28;20756;-64
2023/08/17 07:28:25;;;;;;;10.55;8.13;;;;;;;;;;5080012;28;20021;-64
2023/08/17 07:30:50;;;;;;;13.57;8.80;;;;;;;;;;5081060;28;20023;-64
2023/08/17 07:33:15;;;;;;;11.85;9.43;;;;;;;;;;5075991;28;20271;-64
2023/08/17 07:35:41;;;;;;;9.53;8.43;;;;;;;;;;5082183;28;20052;-64
2023/08/17 07:38:06;;;;;;;12.93;10.05;;;;;;;;;;5092917;28;20331;-64
2023/08/17 07:40:31;;;;;;;18.95;11.30;;;;;;;;;;5094466;28;20059;-64
2023/08/17 07:42:57;;;;;;;10.87;9.33;;;;;;;;;;5058396;28;20043;-64
2023/08/17 07:45:22;;;;;;;15.60;10.80;;;;;;;;;;5032782;28;20267;-64
2023/08/17 07:47:47;;;;;;;14.80;10.20;;;;;;;;;;5037762;28;20028;-64
2023/08/17 07:50:12;;;;;;;16.50;10.97;;;;;;;;;;5037518;28;20883;-64
2023/08/17 07:52:38;;;;;;;14.40;11.53;;;;;;;;;;5043032;28;21051;-64
2023/08/17 07:55:03;;;;;;;15.68;11.75;;;;;;;;;;5045019;28;20278;-64
2023/08/17 07:57:28;;;;;;;14.10;10.43;;;;;;;;;;5048739;28;20020;-64
2023/08/17 07:59:54;;;;;;;18.98;12.57;;;;;;;;;;5036408;28;20086;-64
2023/08/17 08:02:19;;;;;;;16.73;13.23;;;;;;;;;;5035011;28;20016;-64
2023/08/17 08:04:44;;;;;;;20.23;13.63;;;;;;;;;;5045917;28;20298;-64
2023/08/17 08:07:09;;;;;;;17.65;14.88;;;;;;;;;;5037718;28;20022;-64
2023/08/17 08:09:35;;;;;;;21.23;14.33;;;;;;;;;;5035903;28;20891;-63
2023/08/17 08:12:01;;;;;;;22.00;16.30;;;;;;;;;;5039405;28;20606;-63
2023/08/17 08:14:26;;;;;;;17.70;16.00;;;;;;;;;;5036782;28;20151;-63
2023/08/17 08:16:51;;;;;;;27.80;17.38;;;;;;;;;;5038451;28;20130;-63
2023/08/17 08:19:16;;;;;;;18.88;16.85;;;;;;;;;;5045623;28;20794;-63
2023/08/17 08:21:42;;;;;;;22.58;18.85;;;;;;;;;;5043245;28;20020;-63
2023/08/17 08:24:07;;;;;;;24.02;20.15;;;;;;;;;;5032982;28;20036;-63
2023/08/17 08:26:33;;;;;;;22.63;19.83;;;;;;;;;;5042688;28;20085;-63
2023/08/17 08:28:58;;;;;;;24.27;19.43;;;;;;;;;;5085421;28;20931;-63
2023/08/17 08:31:23;;;;;;;22.53;20.30;;;;;;;;;;5086881;28;20637;-63
2023/08/17 08:33:48;;;;;;;23.03;18.87;;;;;;;;;;5056975;28;20329;-63
2023/08/17 08:36:14;;;;;;;24.50;21.05;;;;;;;;;;5040880;28;20285;-63
2023/08/17 08:38:39;;;;;;;25.05;21.25;;;;;;;;;;5071794;28;20027;-64
2023/08/17 08:41:05;;;;;;;21.20;18.95;;;;;;;;;;5091072;28;20063;-63
2023/08/17 08:43:30;;;;;;;23.30;20.65;;;;;;;;;;5088818;28;20028;-63
2023/08/17 08:45:56;;;;;;;26.65;22.58;;;;;;;;;;5081145;28;20032;-64
2023/08/17 08:48:21;;;;;;;25.25;21.88;;;;;;;;;;5085219;28;20081;-63
2023/08/17 08:50:49;;;;;;;24.58;21.95;;;;;;;;;;5091333;28;20027;-63
2023/08/17 08:53:14;;;;;;;25.83;23.13;;;;;;;;;;5089406;28;20027;-63
2023/08/17 08:55:43;;;;;;;27.25;24.40;;;;;;;;;;5091641;28;20098;-63
2023/08/17 08:58:08;;;;;;;26.67;23.85;;;;;;;;;;5037369;28;20054;-63
2023/08/17 09:00:34;;;;;;;30.08;25.38;;;;;;;;;;5034375;28;20233;-63
2023/08/17 09:03:01;;;;;;;27.77;24.75;;;;;;;;;;5046303;28;20056;-63
2023/08/17 09:05:27;;;;;;;35.15;28.05;;;;;;;;;;5044852;28;20078;-64
2023/08/17 09:07:52;;;;;;;32.20;28.17;;;;;;;;;;5040217;28;20874;-64
2023/08/17 09:10:18;;;;;;;33.90;28.02;;;;;;;;;;5035989;28;20024;-64
2023/08/17 09:12:45;;;;;;;36.15;28.50;;;;;;;;;;5038691;28;20142;-64
2023/08/17 09:15:10;;;;;;;35.55;29.40;;;;;;;;;;5041689;28;20135;-63
2023/08/17 09:17:36;;;;;;;29.17;26.08;;;;;;;;;;5041675;28;20028;-64
2023/08/17 09:20:01;;;;;;;31.33;26.13;;;;;;;;;;5037845;28;20020;-64
2023/08/17 09:22:37;;;;;;;32.30;25.80;;;;;;;;;;5040575;28;20873;-64
2023/08/17 09:25:02;;;;;;;28.38;24.63;;;;;;;;;;5040087;28;20020;-63
2023/08/17 09:27:28;;;;;;;31.45;25.73;;;;;;;;;;5044843;28;20968;-63
2023/08/17 09:30:00;;;;;;;27.17;23.95;;;;;;;;;;5040850;28;20059;-63
2023/08/17 09:32:29;;;;;;;29.02;24.60;;;;;;;;;;5040907;28;20027;-65
2023/08/17 09:34:55;;;;;;;30.13;24.13;;;;;;;;;;5071986;28;20032;-65
2023/08/17 09:37:21;;;;;;;27.13;24.25;;;;;;;;;;5056102;28;20437;-64
2023/08/17 09:39:46;;;;;;;27.10;24.23;;;;;;;;;;5075775;28;20028;-64
2023/08/17 09:42:11;;;;;;;30.47;25.53;;;;;;;;;;5082641;28;20772;-64
2023/08/17 09:44:37;;;;;;;27.77;24.88;;;;;;;;;;5087160;28;20634;-64
2023/08/17 09:47:04;;;;;;;30.25;25.70;;;;;;;;;;5087764;28;20019;-64
2023/08/17 09:49:30;;;;;;;30.38;24.98;;;;;;;;;;5084752;28;20021;-63
2023/08/17 09:51:58;;;;;;;27.60;24.67;;;;;;;;;;5088956;28;20121;-64
2023/08/17 09:54:26;;;;;;;29.55;24.83;;;;;;;;;;5083843;28;20025;-64
2023/08/17 09:56:52;;;;;;;26.13;23.17;;;;;;;;;;5092191;28;20111;-63
2023/08/17 09:59:17;;;;;;;28.55;25.02;;;;;;;;;;5055549;28;20119;-64
2023/08/17 10:01:43;;;;;;;32.20;26.38;;;;;;;;;;5037770;28;20101;-64
2023/08/17 10:04:11;;;;;;;29.73;26.63;;;;;;;;;;5085203;28;20037;-64
2023/08/17 10:06:39;;;;;;;27.30;23.95;;;;;;;;;;5081988;28;20115;-64
2023/08/17 10:09:05;;;;;;;26.40;22.60;;;;;;;;;;5037715;28;20032;-64
2023/08/17 10:11:35;;;;;;;32.03;24.77;;;;;;;;;;5033283;28;20895;-64
2023/08/17 10:14:06;;;;;;;29.05;24.52;;;;;;;;;;5043196;28;20365;-64
2023/08/17 10:16:35;;;;;;;27.90;23.17;;;;;;;;;;5046153;28;20878;-64
2023/08/17 10:19:19;;;;;;;24.83;22.02;;;;;;;;;;5042430;28;20035;-64
2023/08/17 10:21:48;;;;;;;23.40;20.55;;;;;;;;;;5038212;28;20085;-64
2023/08/17 10:24:13;;;;;;;24.30;20.80;;;;;;;;;;5040580;28;20079;-64
2023/08/17 10:26:39;;;;;;;23.95;18.90;;;;;;;;;;5052996;28;20490;-64
2023/08/17 10:29:04;;;;;;;23.95;19.40;;;;;;;;;;5084197;28;20043;-64
2023/08/17 10:31:30;;;;;;;24.75;20.10;;;;;;;;;;5081647;28;20198;-64
2023/08/17 10:33:57;;;;;;;20.65;17.88;;;;;;;;;;5075739;28;20060;-64
2023/08/17 10:36:22;;;;;;;19.63;17.50;;;;;;;;;;5070721;28;20020;-63
2023/08/17 10:38:47;;;;;;;22.10;18.98;;;;;;;;;;5071692;28;20081;-64
2023/08/17 10:41:14;;;;;;;22.55;20.02;;;;;;;;;;5072198;28;20054;-64
2023/08/17 10:43:58;;;;;;;22.33;20.05;;;;;;;;;;5070881;28;20052;-64
2023/08/17 10:46:36;;;;;;;22.58;20.15;;;;;;;;;;5071738;28;20547;-64
2023/08/17 10:49:05;;;;;;;25.27;21.35;;;;;;;;;;5055127;28;20355;-64
2023/08/17 10:51:31;;;;;;;21.00;18.05;;;;;;;;;;5082116;28;20029;-64
2023/08/17 10:53:58;;;;;;;23.98;20.58;;;;;;;;;;5086340;28;20016;-64
2023/08/17 10:56:26;;;;;;;28.90;21.17;;;;;;;;;;5072796;28;20040;-64
2023/08/17 10:58:51;;;;;;;28.08;22.90;;;;;;;;;;5072282;28;20115;-64
2023/08/17 11:01:30;;;;;;;26.73;21.33;;;;;;;;;;5089068;28;20149;-64
2023/08/17 11:04:12;;;;;;;27.52;21.98;;;;;;;;;;5084902;28;20103;-64
2023/08/17 11:06:37;;;;;;;21.77;19.45;;;;;;;;;;5087598;28;20548;-64
2023/08/17 11:09:06;;;;;;;27.17;22.83;;;;;;;;;;5081580;28;20032;-64
2023/08/17 11:11:31;;;;;;;28.15;22.20;;;;;;;;;;5070106;28;20008;-64
2023/08/17 11:13:57;;;;;;;27.60;23.15;;;;;;;;;;5086046;28;20024;-64
2023/08/17 11:16:23;;;;;;;29.67;25.40;;;;;;;;;;5055189;28;20023;-64
2023/08/17 11:18:49;;;;;;;26.23;22.48;;;;;;;;;;5034898;28;20209;-64
2023/08/17 11:21:14;;;;;;;28.42;23.60;;;;;;;;;;5039455;28;20020;-64
2023/08/17 11:23:40;;;;;;;26.65;23.80;;;;;;;;;;5028502;28;20930;-64
2023/08/17 11:26:06;;;;;;;29.58;24.45;;;;;;;;;;5033852;28;20028;-64
2023/08/17 11:28:41;;;;;;;26.98;24.02;;;;;;;;;;5045269;28;20028;-64
2023/08/17 11:31:07;;;;;;;24.83;20.40;;;;;;;;;;5085147;28;20036;-64
2023/08/17 11:33:33;;;;;;;23.42;20.77;;;;;;;;;;5085027;28;20036;-64
2023/08/17 11:35:59;;;;;;;26.80;22.20;;;;;;;;;;5085746;28;20074;-64
2023/08/17 11:38:25;;;;;;;25.05;21.85;;;;;;;;;;5084793;28;20649;-64
2023/08/17 11:40:50;;;;;;;28.33;20.58;;;;;;;;;;5085741;28;20493;-64
2023/08/17 11:43:16;;;;;;;22.58;18.52;;;;;;;;;;5076854;28;20028;-64
2023/08/17 11:45:41;;;;;;;24.08;21.77;;;;;;;;;;5072175;28;20024;-64
2023/08/17 11:48:07;;;;;;;22.63;20.23;;;;;;;;;;5071732;28;20029;-64
2023/08/17 11:50:32;;;;;;;27.35;22.85;;;;;;;;;;5073236;28;20028;-64
2023/08/17 11:53:01;;;;;;;25.67;22.90;;;;;;;;;;5083387;28;20024;-64
2023/08/17 11:55:26;;;;;;;24.95;22.33;;;;;;;;;;5071496;28;20533;-64
2023/08/17 11:57:52;;;;;;;25.40;22.73;;;;;;;;;;5071654;28;20134;-64
2023/08/17 12:00:19;;;;;;;25.02;21.60;;;;;;;;;;5071597;28;20490;-64
2023/08/17 12:02:46;;;;;;;23.58;21.02;;;;;;;;;;5078028;28;20031;-64
2023/08/17 12:05:12;;;;;;;22.45;20.10;;;;;;;;;;5078369;28;20029;-64
2023/08/17 12:07:37;;;;;;;24.70;22.08;;;;;;;;;;5071407;28;20371;-64
2023/08/17 12:10:03;;;;;;;22.93;19.80;;;;;;;;;;5071925;28;20035;-64
2023/08/17 12:12:29;;;;;;;30.67;23.38;;;;;;;;;;5085756;28;20302;-65
2023/08/17 12:14:54;;;;;;;21.90;19.63;;;;;;;;;;5089073;28;20717;-64
2023/08/17 12:17:20;;;;;;;20.92;18.67;;;;;;;;;;5087207;28;20525;-64
2023/08/17 12:19:49;;;;;;;20.98;18.70;;;;;;;;;;5073617;28;20024;-64
2023/08/17 12:22:14;;;;;;;23.10;19.67;;;;;;;;;;5074815;28;20055;-64
2023/08/17 12:24:40;;;;;;;22.10;19.88;;;;;;;;;;5086170;28;20036;-64
2023/08/17 12:27:05;;;;;;;26.08;19.30;;;;;;;;;;5089495;28;20032;-64
2023/08/17 12:29:31;;;;;;;22.00;18.00;;;;;;;;;;5076208;28;20074;-63
2023/08/17 12:32:05;;;;;;;22.67;20.20;;;;;;;;;;5085569;28;20028;-64
2023/08/17 12:34:30;;;;;;;27.42;21.65;;;;;;;;;;5077833;28;20029;-64
2023/08/17 12:36:55;;;;;;;26.25;23.48;;;;;;;;;;5083183;28;20082;-64
2023/08/17 12:39:20;;;;;;;28.13;25.17;;;;;;;;;;5078086;28;20023;-64
2023/08/17 12:41:46;;;;;;;28.80;25.55;;;;;;;;;;5076402;28;20271;-64
2023/08/17 12:44:14;;;;;;;27.50;24.60;;;;;;;;;;5088058;28;20115;-64
2023/08/17 12:46:39;;;;;;;31.02;25.83;;;;;;;;;;5086637;28;20035;-64
2023/08/17 12:49:04;;;;;;;28.88;25.65;;;;;;;;;;5087275;28;20020;-64
2023/08/17 12:51:30;;;;;;;33.63;27.33;;;;;;;;;;5078819;28;20023;-63
2023/08/17 12:53:55;;;;;;;28.90;25.52;;;;;;;;;;5073618;28;20024;-64
2023/08/17 12:56:20;;;;;;;31.67;27.73;;;;;;;;;;5083582;28;20035;-64
2023/08/17 12:58:46;;;;;;;31.40;28.05;;;;;;;;;;5083053;28;20278;-64
2023/08/17 13:01:11;;;;;;;32.93;29.37;;;;;;;;;;5090116;28;20023;-64
2023/08/17 13:03:36;;;;;;;32.53;29.02;;;;;;;;;;5086058;28;20294;-64
2023/08/17 13:06:02;;;;;;;32.03;28.73;;;;;;;;;;5039970;28;20031;-63
2023/08/17 13:08:28;;;;;;;31.50;28.13;;;;;;;;;;5085787;28;20051;-63
2023/08/17 13:10:53;;;;;;;31.40;27.42;;;;;;;;;;5042973;28;20039;-64
2023/08/17 13:13:18;;;;;;;29.83;26.60;;;;;;;;;;5039184;28;20024;-63
2023/08/17 13:15:43;;;;;;;31.75;26.83;;;;;;;;;;5032390;28;20345;-63
2023/08/17 13:18:09;;;;;;;33.63;28.48;;;;;;;;;;5066009;28;20027;-63
2023/08/17 13:20:34;;;;;;;31.45;26.70;;;;;;;;;;5087650;28;20023;-63
2023/08/17 13:22:59;;;;;;;36.00;28.65;;;;;;;;;;5089312;28;20036;-63
2023/08/17 13:25:24;;;;;;;37.50;31.10;;;;;;;;;;5086018;28;20020;-63
2023/08/17 13:27:50;;;;;;;36.22;32.50;;;;;;;;;;5089277;28;20274;-63
2023/08/17 13:30:15;;;;;;;33.28;29.25;;;;;;;;;;5078168;28;20093;-63
2023/08/17 13:32:41;;;;;;;36.20;32.40;;;;;;;;;;5084737;28;20040;-63
2023/08/17 13:35:06;;;;;;;36.50;29.45;;;;;;;;;;5089948;28;20016;-62
2023/08/17 13:37:31;;;;;;;36.42;32.72;;;;;;;;;;5090440;28;20032;-63
2023/08/17 13:39:58;;;;;;;40.42;36.13;;;;;;;;;;5090349;28;20020;-63
2023/08/17 13:42:23;;;;;;;44.17;39.58;;;;;;;;;;5058331;28;20056;-63
2023/08/17 13:44:48;;;;;;;41.53;37.38;;;;;;;;;;5069609;28;20432;-63
2023/08/17 13:47:13;;;;;;;42.30;37.93;;;;;;;;;;5082461;28;20447;-63
2023/08/17 13:49:39;;;;;;;41.20;36.93;;;;;;;;;;5082596;28;20289;-64
2023/08/17 13:52:04;;;;;;;44.20;39.40;;;;;;;;;;5082572;28;20275;-63
2023/08/17 13:54:29;;;;;;;42.88;37.85;;;;;;;;;;5072590;28;20342;-63
2023/08/17 13:56:55;;;;;;;47.80;41.58;;;;;;;;;;5058393;28;20024;-63
2023/08/17 13:59:20;;;;;;;42.70;38.15;;;;;;;;;;5030866;28;20253;-63
2023/08/17 14:01:45;;;;;;;44.30;38.03;;;;;;;;;;5040627;28;20216;-62
2023/08/17 14:04:14;;;;;;;43.53;38.85;;;;;;;;;;5031243;28;20341;-63
2023/08/17 14:06:39;;;;;;;45.03;40.22;;;;;;;;;;5035882;28;20039;-63
2023/08/17 14:09:05;;;;;;;44.97;40.22;;;;;;;;;;5037969;28;20016;-63
2023/08/17 14:11:31;;;;;;;48.03;43.10;;;;;;;;;;5030023;28;20029;-63
2023/08/17 14:13:56;;;;;;;44.38;39.60;;;;;;;;;;5062445;28;20015;-63
2023/08/17 14:16:21;;;;;;;47.23;40.63;;;;;;;;;;5088881;28;20032;-63
2023/08/17 14:18:46;;;;;;;46.47;41.75;;;;;;;;;;5087504;28;20282;-63
2023/08/17 14:21:12;;;;;;;45.77;39.53;;;;;;;;;;5088560;28;20498;-63